createdAt,value
2022-09-27T00:00:14.318Z,10.45
2022-09-27T00:01:14.341Z,10.47
2022-09-27T00:02:14.355Z,10.44
2022-09-27T00:03:14.277Z,10.42
2022-09-27T00:04:14.641Z,10.42
2022-09-27T00:05:14.258Z,10.41
2022-09-27T00:06:14.255Z,10.40
2022-09-27T00:07:14.227Z,10.38
2022-09-27T00:08:14.214Z,10.40
2022-09-27T00:09:14.703Z,10.38
2022-09-27T00:10:14.186Z,10.38
2022-09-27T00:11:14.192Z,10.38
2022-09-27T00:12:14.165Z,10.36
2022-09-27T00:13:14.159Z,10.34
2022-09-27T00:14:14.534Z,10.33
2022-09-27T00:15:14.127Z,10.33
2022-09-27T00:16:14.222Z,10.33
2022-09-27T00:17:14.094Z,10.33
2022-09-27T00:18:14.094Z,10.34
2022-09-27T00:19:14.632Z,10.36
2022-09-27T00:20:14.065Z,10.36
2022-09-27T00:21:14.044Z,10.38
2022-09-27T00:22:14.034Z,10.36
2022-09-27T00:23:14.019Z,10.36
2022-09-27T00:24:14.433Z,10.36
2022-09-27T00:25:14.005Z,10.36
2022-09-27T00:26:13.981Z,10.36
2022-09-27T00:27:13.976Z,10.34
2022-09-27T00:28:13.954Z,10.34
2022-09-27T00:29:14.505Z,10.34
2022-09-27T00:30:13.935Z,10.36
2022-09-27T00:31:13.999Z,10.34
2022-09-27T00:32:13.903Z,10.34
2022-09-27T00:33:13.888Z,10.34
2022-09-27T00:34:14.318Z,10.34
2022-09-27T00:35:13.870Z,10.36
2022-09-27T00:36:13.850Z,10.33
2022-09-27T00:37:13.832Z,10.34
2022-09-27T00:38:13.838Z,10.34
2022-09-27T00:39:14.237Z,10.34
2022-09-27T00:40:18.746Z,10.36
2022-09-27T00:41:14.780Z,10.36
2022-09-27T00:42:21.776Z,10.38
2022-09-27T00:43:20.751Z,10.36
2022-09-27T00:44:21.118Z,10.38
2022-09-27T00:45:20.735Z,10.40
2022-09-27T00:46:20.804Z,10.38
2022-09-27T00:47:21.698Z,10.38
2022-09-27T00:48:20.688Z,10.40
2022-09-27T00:49:14.106Z,10.40
2022-09-27T00:50:13.683Z,10.40
2022-09-27T00:51:13.675Z,10.38
2022-09-27T00:52:13.646Z,10.38
2022-09-27T00:53:13.628Z,10.40
2022-09-27T00:54:14.086Z,10.40
2022-09-27T00:55:13.611Z,10.41
2022-09-27T00:56:13.591Z,10.41
2022-09-27T00:57:13.582Z,10.40
2022-09-27T00:58:13.569Z,10.40
2022-09-27T00:59:14.046Z,10.40
2022-09-27T01:00:13.543Z,10.40
2022-09-27T01:01:13.557Z,10.38
2022-09-27T01:02:13.589Z,10.40
2022-09-27T01:03:13.495Z,10.41
2022-09-27T01:04:13.911Z,10.40
2022-09-27T01:05:13.472Z,10.41
2022-09-27T01:06:13.465Z,10.42
2022-09-27T01:07:13.451Z,10.42
2022-09-27T01:08:13.445Z,10.41
2022-09-27T01:09:13.936Z,10.44
2022-09-27T01:10:13.411Z,10.45
2022-09-27T01:11:13.398Z,10.45
2022-09-27T01:12:13.380Z,10.48
2022-09-27T01:13:13.376Z,10.48
2022-09-27T01:14:13.787Z,10.48
2022-09-27T01:15:13.347Z,10.52
2022-09-27T01:16:13.465Z,10.52
2022-09-27T01:17:13.312Z,10.52
2022-09-27T01:18:13.313Z,10.52
2022-09-27T01:19:13.738Z,10.51
2022-09-27T01:20:13.284Z,10.51
2022-09-27T01:21:13.271Z,10.52
2022-09-27T01:22:13.259Z,10.52
2022-09-27T01:23:13.250Z,10.48
2022-09-27T01:24:13.652Z,10.47
2022-09-27T01:25:13.212Z,10.47
2022-09-27T01:26:13.198Z,10.44
2022-09-27T01:27:13.187Z,10.44
2022-09-27T01:28:13.177Z,10.45
2022-09-27T01:29:13.654Z,10.47
2022-09-27T01:30:13.146Z,10.47
2022-09-27T01:31:13.299Z,10.51
2022-09-27T01:32:13.129Z,10.53
2022-09-27T01:33:13.114Z,10.55
2022-09-27T01:34:13.435Z,10.59
2022-09-27T01:35:13.083Z,10.60
2022-09-27T01:36:13.076Z,10.60
2022-09-27T01:37:13.073Z,10.61
2022-09-27T01:38:13.056Z,10.63
2022-09-27T01:39:13.504Z,10.64
2022-09-27T01:40:13.095Z,10.66
2022-09-27T01:41:13.025Z,10.67
2022-09-27T01:42:13.468Z,10.67
2022-09-27T01:43:13.003Z,10.70
2022-09-27T01:44:13.343Z,10.71
2022-09-27T01:45:12.966Z,10.71
2022-09-27T01:46:13.005Z,10.71
2022-09-27T01:47:12.945Z,10.73
2022-09-27T01:48:12.921Z,10.73
2022-09-27T01:49:13.389Z,10.74
2022-09-27T01:50:12.893Z,10.76
2022-09-27T01:51:12.880Z,10.78
2022-09-27T01:52:12.870Z,10.78
2022-09-27T01:53:12.858Z,10.78
2022-09-27T01:54:13.269Z,10.81
2022-09-27T01:55:12.832Z,10.81
2022-09-27T01:56:12.810Z,10.82
2022-09-27T01:57:12.810Z,10.84
2022-09-27T01:58:12.789Z,10.81
2022-09-27T01:59:13.209Z,10.82
2022-09-27T02:00:12.768Z,10.84
2022-09-27T02:01:12.794Z,10.84
2022-09-27T02:02:12.779Z,10.84
2022-09-27T02:03:12.728Z,10.82
2022-09-27T02:04:13.037Z,10.82
2022-09-27T02:05:12.701Z,10.82
2022-09-27T02:06:13.039Z,10.81
2022-09-27T02:07:12.677Z,10.81
2022-09-27T02:08:12.656Z,10.82
2022-09-27T02:09:13.165Z,10.84
2022-09-27T02:10:12.641Z,10.82
2022-09-27T02:11:12.625Z,10.84
2022-09-27T02:12:12.613Z,10.85
2022-09-27T02:13:12.612Z,10.86
2022-09-27T02:14:12.589Z,10.86
2022-09-27T02:15:12.985Z,10.86
2022-09-27T02:16:12.592Z,10.86
2022-09-27T02:17:12.550Z,10.86
2022-09-27T02:18:12.525Z,10.88
2022-09-27T02:19:12.977Z,10.86
2022-09-27T02:20:12.504Z,10.88
2022-09-27T02:21:12.508Z,10.88
2022-09-27T02:22:12.480Z,10.86
2022-09-27T02:23:12.463Z,10.88
2022-09-27T02:24:12.452Z,10.86
2022-09-27T02:25:12.877Z,10.88
2022-09-27T02:26:12.445Z,10.86
2022-09-27T02:27:12.412Z,10.88
2022-09-27T02:28:12.404Z,10.86
2022-09-27T02:29:12.810Z,10.89
2022-09-27T02:30:12.383Z,10.88
2022-09-27T02:31:12.451Z,10.91
2022-09-27T02:32:12.357Z,10.91
2022-09-27T02:33:12.342Z,10.92
2022-09-27T02:34:12.690Z,10.92
2022-09-27T02:35:12.323Z,10.92
2022-09-27T02:36:12.300Z,10.92
2022-09-27T02:37:12.304Z,10.92
2022-09-27T02:38:12.281Z,10.89
2022-09-27T02:39:12.640Z,10.84
2022-09-27T02:40:12.371Z,10.82
2022-09-27T02:41:12.240Z,10.76
2022-09-27T02:42:12.227Z,10.73
2022-09-27T02:43:12.209Z,10.67
2022-09-27T02:44:12.199Z,10.63
2022-09-27T02:45:12.540Z,10.61
2022-09-27T02:46:12.226Z,10.60
2022-09-27T02:47:12.159Z,10.59
2022-09-27T02:48:12.144Z,10.56
2022-09-27T02:49:12.581Z,10.56
2022-09-27T02:50:12.123Z,10.55
2022-09-27T02:51:12.109Z,10.52
2022-09-27T02:52:12.089Z,10.51
2022-09-27T02:53:12.093Z,10.52
2022-09-27T02:54:12.073Z,10.52
2022-09-27T02:55:12.482Z,10.52
2022-09-27T02:56:12.037Z,10.53
2022-09-27T02:57:12.040Z,10.55
2022-09-27T02:58:12.020Z,10.59
2022-09-27T02:59:12.367Z,10.55
2022-09-27T03:00:11.988Z,10.55
2022-09-27T03:01:12.024Z,10.56
2022-09-27T03:02:13.684Z,10.53
2022-09-27T03:03:12.023Z,10.53
2022-09-27T03:04:12.288Z,10.53
2022-09-27T03:05:11.927Z,10.52
2022-09-27T03:06:11.905Z,10.52
2022-09-27T03:07:11.896Z,10.51
2022-09-27T03:08:11.886Z,10.51
2022-09-27T03:09:12.196Z,10.51
2022-09-27T03:10:11.859Z,10.51
2022-09-27T03:11:11.846Z,10.47
2022-09-27T03:12:11.840Z,10.47
2022-09-27T03:13:11.824Z,10.47
2022-09-27T03:14:11.805Z,10.45
2022-09-27T03:15:12.235Z,10.44
2022-09-27T03:16:11.776Z,10.44
2022-09-27T03:17:11.814Z,10.44
2022-09-27T03:18:11.750Z,10.42
2022-09-27T03:19:12.099Z,10.42
2022-09-27T03:20:18.716Z,10.41
2022-09-27T03:21:18.715Z,10.40
2022-09-27T03:22:19.707Z,10.38
2022-09-27T03:23:18.687Z,10.36
2022-09-27T03:24:19.012Z,10.34
2022-09-27T03:25:18.663Z,10.36
2022-09-27T03:26:18.645Z,10.34
2022-09-27T03:27:19.635Z,10.34
2022-09-27T03:28:11.628Z,10.34
2022-09-27T03:29:11.913Z,10.36
2022-09-27T03:30:11.606Z,10.36
2022-09-27T03:31:11.646Z,10.36
2022-09-27T03:32:11.573Z,10.36
2022-09-27T03:33:11.558Z,10.38
2022-09-27T03:34:11.542Z,10.38
2022-09-27T03:35:11.954Z,10.41
2022-09-27T03:36:11.515Z,10.40
2022-09-27T03:37:11.529Z,10.38
2022-09-27T03:38:11.491Z,10.41
2022-09-27T03:39:11.843Z,10.42
2022-09-27T03:40:11.472Z,10.44
2022-09-27T03:41:11.456Z,10.44
2022-09-27T03:42:11.434Z,10.45
2022-09-27T03:43:11.434Z,10.44
2022-09-27T03:44:11.831Z,10.47
2022-09-27T03:45:11.411Z,10.45
2022-09-27T03:46:11.452Z,10.47
2022-09-27T03:47:11.380Z,10.48
2022-09-27T03:48:11.364Z,10.48
2022-09-27T03:49:11.780Z,10.51
2022-09-27T03:50:11.342Z,10.51
2022-09-27T03:51:11.331Z,10.53
2022-09-27T03:52:11.310Z,10.51
2022-09-27T03:53:11.325Z,10.52
2022-09-27T03:54:11.280Z,10.52
2022-09-27T03:55:11.698Z,10.53
2022-09-27T03:56:11.259Z,10.52
2022-09-27T03:57:11.258Z,10.56
2022-09-27T03:58:11.237Z,10.56
2022-09-27T03:59:11.560Z,10.60
2022-09-27T04:00:11.969Z,10.60
2022-09-27T04:01:11.337Z,10.61
2022-09-27T04:02:11.206Z,10.64
2022-09-27T04:03:11.175Z,10.61
2022-09-27T04:04:11.498Z,10.61
2022-09-27T04:05:11.596Z,10.61
2022-09-27T04:06:11.139Z,10.60
2022-09-27T04:07:11.120Z,10.60
2022-09-27T04:08:11.109Z,10.59
2022-09-27T04:09:11.552Z,10.56
2022-09-27T04:10:11.087Z,10.52
2022-09-27T04:11:11.078Z,10.51
2022-09-27T04:12:11.052Z,10.52
2022-09-27T04:13:11.045Z,10.51
2022-09-27T04:14:11.029Z,10.51
2022-09-27T04:15:11.343Z,10.48
2022-09-27T04:16:10.995Z,10.48
2022-09-27T04:17:11.044Z,10.51
2022-09-27T04:18:10.974Z,10.51
2022-09-27T04:19:11.409Z,10.51
2022-09-27T04:20:10.945Z,10.52
2022-09-27T04:21:10.937Z,10.53
2022-09-27T04:22:10.934Z,10.53
2022-09-27T04:23:10.925Z,10.55
2022-09-27T04:24:10.907Z,10.53
2022-09-27T04:25:10.923Z,10.53
2022-09-27T04:26:10.869Z,10.53
2022-09-27T04:27:10.874Z,10.51
2022-09-27T04:28:10.857Z,10.52
2022-09-27T04:29:11.253Z,10.51
2022-09-27T04:30:10.826Z,10.51
2022-09-27T04:31:10.887Z,10.48
2022-09-27T04:32:10.794Z,10.48
2022-09-27T04:33:10.788Z,10.48
2022-09-27T04:34:11.245Z,10.48
2022-09-27T04:35:10.763Z,10.51
2022-09-27T04:36:11.066Z,10.48
2022-09-27T04:37:10.739Z,10.48
2022-09-27T04:38:10.717Z,10.51
2022-09-27T04:39:11.202Z,10.52
2022-09-27T04:40:10.690Z,10.52
2022-09-27T04:41:10.717Z,10.52
2022-09-27T04:42:10.668Z,10.51
2022-09-27T04:43:10.661Z,10.52
2022-09-27T04:44:10.978Z,10.51
2022-09-27T04:45:10.631Z,10.51
2022-09-27T04:46:10.731Z,10.48
2022-09-27T04:47:10.610Z,10.48
2022-09-27T04:48:10.597Z,10.45
2022-09-27T04:49:10.633Z,10.45
2022-09-27T04:50:10.574Z,10.45
2022-09-27T04:51:10.563Z,10.45
2022-09-27T04:52:10.550Z,10.45
2022-09-27T04:53:10.528Z,10.44
2022-09-27T04:54:10.872Z,10.45
2022-09-27T04:55:10.497Z,10.45
2022-09-27T04:56:10.489Z,10.45
2022-09-27T04:57:10.485Z,10.42
2022-09-27T04:58:10.464Z,10.44
2022-09-27T04:59:11.040Z,10.42
2022-09-27T05:00:10.453Z,10.42
2022-09-27T05:01:10.510Z,10.42
2022-09-27T05:02:10.452Z,10.41
2022-09-27T05:03:10.394Z,10.40
2022-09-27T05:04:10.403Z,10.40
2022-09-27T05:05:10.677Z,10.38
2022-09-27T05:06:10.370Z,10.38
2022-09-27T05:07:10.344Z,10.38
2022-09-27T05:08:10.333Z,10.38
2022-09-27T05:09:10.654Z,10.38
2022-09-27T05:10:10.305Z,10.38
2022-09-27T05:11:10.296Z,10.38
2022-09-27T05:12:10.284Z,10.36
2022-09-27T05:13:10.262Z,10.34
2022-09-27T05:14:10.243Z,10.33
2022-09-27T05:15:10.683Z,10.32
2022-09-27T05:16:10.457Z,10.30
2022-09-27T05:17:10.269Z,10.29
2022-09-27T05:18:10.193Z,10.29
2022-09-27T05:19:10.574Z,10.29
2022-09-27T05:20:10.178Z,10.29
2022-09-27T05:21:10.159Z,10.26
2022-09-27T05:22:10.151Z,10.26
2022-09-27T05:23:10.138Z,10.27
2022-09-27T05:24:10.110Z,10.27
2022-09-27T05:25:10.150Z,10.27
2022-09-27T05:26:10.091Z,10.26
2022-09-27T05:27:10.190Z,10.26
2022-09-27T05:28:10.069Z,10.27
2022-09-27T05:29:10.561Z,10.26
2022-09-27T05:30:10.054Z,10.26
2022-09-27T05:31:10.124Z,10.25
2022-09-27T05:32:10.028Z,10.25
2022-09-27T05:33:10.019Z,10.23
2022-09-27T05:34:10.001Z,10.23
2022-09-27T05:35:10.367Z,10.23
2022-09-27T05:36:09.983Z,10.23
2022-09-27T05:37:09.956Z,10.22
2022-09-27T05:38:09.947Z,10.22
2022-09-27T05:39:10.454Z,10.23
2022-09-27T05:40:29.438Z,10.25
2022-09-27T05:41:10.984Z,10.23
2022-09-27T05:42:09.899Z,10.25
2022-09-27T05:43:09.875Z,10.26
2022-09-27T05:44:09.866Z,10.25
2022-09-27T05:45:10.258Z,10.23
2022-09-27T05:46:09.854Z,10.22
2022-09-27T05:47:09.825Z,10.23
2022-09-27T05:48:09.804Z,10.22
2022-09-27T05:49:10.229Z,10.20
2022-09-27T05:50:09.806Z,10.22
2022-09-27T05:51:09.772Z,10.18
2022-09-27T05:52:13.604Z,10.17
2022-09-27T05:53:10.743Z,10.17
2022-09-27T05:54:10.194Z,10.14
2022-09-27T05:55:09.714Z,10.12
2022-09-27T05:56:09.712Z,10.09
2022-09-27T05:57:09.691Z,10.08
2022-09-27T05:58:09.690Z,10.05
2022-09-27T05:59:09.986Z,10.05
2022-09-27T06:00:16.687Z,10.04
2022-09-27T06:01:16.689Z,10.04
2022-09-27T06:02:16.640Z,10.02
2022-09-27T06:03:16.615Z,10.02
2022-09-27T06:04:16.904Z,10.04
2022-09-27T06:05:16.655Z,10.02
2022-09-27T06:06:16.602Z,10.02
2022-09-27T06:07:17.587Z,10.01
2022-09-27T06:08:16.578Z,10.01
2022-09-27T06:09:09.900Z,10.02
2022-09-27T06:10:09.536Z,10.01
2022-09-27T06:11:09.514Z,10.01
2022-09-27T06:12:09.507Z,10.02
2022-09-27T06:13:10.459Z,10.05
2022-09-27T06:14:09.518Z,10.05
2022-09-27T06:15:09.514Z,10.05
2022-09-27T06:16:09.474Z,10.07
2022-09-27T06:17:09.435Z,10.05
2022-09-27T06:18:09.429Z,10.08
2022-09-27T06:19:09.515Z,10.11
2022-09-27T06:20:09.397Z,10.15
2022-09-27T06:21:09.385Z,10.22
2022-09-27T06:22:09.364Z,10.25
2022-09-27T06:23:09.345Z,10.26
2022-09-27T06:24:09.362Z,10.27
2022-09-27T06:25:09.650Z,10.29
2022-09-27T06:26:09.315Z,10.32
2022-09-27T06:27:09.296Z,10.32
2022-09-27T06:28:09.317Z,10.34
2022-09-27T06:29:09.767Z,10.34
2022-09-27T06:30:09.273Z,10.34
2022-09-27T06:31:09.279Z,10.36
2022-09-27T06:32:09.233Z,10.36
2022-09-27T06:33:09.223Z,10.36
2022-09-27T06:34:09.211Z,10.32
2022-09-27T06:35:09.636Z,10.36
2022-09-27T06:36:09.222Z,10.38
2022-09-27T06:37:09.191Z,10.42
2022-09-27T06:38:09.160Z,10.47
2022-09-27T06:39:09.202Z,10.48
2022-09-27T06:40:09.144Z,10.52
2022-09-27T06:41:09.111Z,10.55
2022-09-27T06:42:09.117Z,10.59
2022-09-27T06:43:09.103Z,10.61
2022-09-27T06:44:09.119Z,10.64
2022-09-27T06:45:09.061Z,10.68
2022-09-27T06:46:09.120Z,10.71
2022-09-27T06:47:09.060Z,10.74
2022-09-27T06:48:09.029Z,10.78
2022-09-27T06:49:09.573Z,10.78
2022-09-27T06:50:09.021Z,10.73
2022-09-27T06:51:08.996Z,10.74
2022-09-27T06:52:08.979Z,10.74
2022-09-27T06:53:08.968Z,10.78
2022-09-27T06:54:08.957Z,10.82
2022-09-27T06:55:09.136Z,10.84
2022-09-27T06:56:08.935Z,10.78
2022-09-27T06:57:08.914Z,10.76
2022-09-27T06:58:08.925Z,10.74
2022-09-27T06:59:09.478Z,10.73
2022-09-27T07:00:08.886Z,10.71
2022-09-27T07:01:08.901Z,10.71
2022-09-27T07:02:08.866Z,10.74
2022-09-27T07:03:08.843Z,10.81
2022-09-27T07:04:08.825Z,10.86
2022-09-27T07:05:09.135Z,10.92
2022-09-27T07:06:08.824Z,11.02
2022-09-27T07:07:08.783Z,11.10
2022-09-27T07:08:08.784Z,11.18
2022-09-27T07:09:09.199Z,11.21
2022-09-27T07:10:10.033Z,11.27
2022-09-27T07:11:08.734Z,11.35
2022-09-27T07:12:08.737Z,11.36
2022-09-27T07:13:08.702Z,11.37
2022-09-27T07:14:08.713Z,11.40
2022-09-27T07:15:09.125Z,11.46
2022-09-27T07:16:08.760Z,11.51
2022-09-27T07:17:08.655Z,11.54
2022-09-27T07:18:08.657Z,11.61
2022-09-27T07:19:08.978Z,11.70
2022-09-27T07:20:08.635Z,11.79
2022-09-27T07:21:08.602Z,11.95
2022-09-27T07:22:08.602Z,11.99
2022-09-27T07:23:08.584Z,11.99
2022-09-27T07:24:08.572Z,11.99
2022-09-27T07:25:08.873Z,12.09
2022-09-27T07:26:08.551Z,12.12
2022-09-27T07:27:08.522Z,12.12
2022-09-27T07:28:08.520Z,12.04
2022-09-27T07:29:08.652Z,12.01
2022-09-27T07:30:08.501Z,11.96
2022-09-27T07:31:08.529Z,11.88
2022-09-27T07:32:08.472Z,11.88
2022-09-27T07:33:08.448Z,11.91
2022-09-27T07:34:08.447Z,11.86
2022-09-27T07:35:08.839Z,11.94
2022-09-27T07:36:08.421Z,11.99
2022-09-27T07:37:08.399Z,11.99
2022-09-27T07:38:08.815Z,11.88
2022-09-27T07:39:08.856Z,11.90
2022-09-27T07:40:08.358Z,11.86
2022-09-27T07:41:08.341Z,11.85
2022-09-27T07:42:08.337Z,11.85
2022-09-27T07:43:08.317Z,11.79
2022-09-27T07:44:08.308Z,11.78
2022-09-27T07:45:09.261Z,11.73
2022-09-27T07:46:08.341Z,11.73
2022-09-27T07:47:08.256Z,11.72
2022-09-27T07:48:08.257Z,11.69
2022-09-27T07:49:08.730Z,11.69
2022-09-27T07:50:08.236Z,11.69
2022-09-27T07:51:08.224Z,11.65
2022-09-27T07:52:08.207Z,11.62
2022-09-27T07:53:08.185Z,11.62
2022-09-27T07:54:09.013Z,11.58
2022-09-27T07:55:08.165Z,11.55
2022-09-27T07:56:08.145Z,11.52
2022-09-27T07:57:15.176Z,11.54
2022-09-27T07:58:08.115Z,11.62
2022-09-27T07:59:08.227Z,11.75
2022-09-27T08:00:08.122Z,11.86
2022-09-27T08:01:08.162Z,12.02
2022-09-27T08:02:08.150Z,12.16
2022-09-27T08:03:08.056Z,12.37
2022-09-27T08:04:08.385Z,12.59
2022-09-27T08:05:08.036Z,12.86
2022-09-27T08:06:08.014Z,13.25
2022-09-27T08:07:09.369Z,13.52
2022-09-27T08:08:07.989Z,13.60
2022-09-27T08:09:08.418Z,13.60
2022-09-27T08:10:07.963Z,13.79
2022-09-27T08:11:08.043Z,13.92
2022-09-27T08:12:07.944Z,14.03
2022-09-27T08:13:07.923Z,14.18
2022-09-27T08:14:07.912Z,14.20
2022-09-27T08:15:08.347Z,14.00
2022-09-27T08:16:07.943Z,13.82
2022-09-27T08:17:07.873Z,13.69
2022-09-27T08:18:07.862Z,13.57
2022-09-27T08:19:08.213Z,13.54
2022-09-27T08:20:07.832Z,13.49
2022-09-27T08:21:07.829Z,13.39
2022-09-27T08:22:07.813Z,13.30
2022-09-27T08:23:07.782Z,13.14
2022-09-27T08:24:07.793Z,12.96
2022-09-27T08:25:08.091Z,12.77
2022-09-27T08:26:07.751Z,12.53
2022-09-27T08:27:11.502Z,12.54
2022-09-27T08:28:07.745Z,12.59
2022-09-27T08:29:07.753Z,12.67
2022-09-27T08:30:07.879Z,12.72
2022-09-27T08:31:07.689Z,12.53
2022-09-27T08:32:07.723Z,12.31
2022-09-27T08:33:07.662Z,12.37
2022-09-27T08:34:07.657Z,12.47
2022-09-27T08:35:08.068Z,12.60
2022-09-27T08:36:07.689Z,12.65
2022-09-27T08:37:07.610Z,12.53
2022-09-27T08:38:07.587Z,12.53
2022-09-27T08:39:15.143Z,12.67
2022-09-27T08:40:14.636Z,12.74
2022-09-27T08:41:14.563Z,12.93
2022-09-27T08:42:14.545Z,13.04
2022-09-27T08:43:14.528Z,13.14
2022-09-27T08:44:15.045Z,13.25
2022-09-27T08:45:14.501Z,13.33
2022-09-27T08:46:14.498Z,13.41
2022-09-27T08:47:07.479Z,13.59
2022-09-27T08:48:07.475Z,13.75
2022-09-27T08:49:07.659Z,13.82
2022-09-27T08:50:07.438Z,13.71
2022-09-27T08:51:07.428Z,13.64
2022-09-27T08:52:07.414Z,13.54
2022-09-27T08:53:07.397Z,13.49
2022-09-27T08:54:07.387Z,13.46
2022-09-27T08:55:07.575Z,13.44
2022-09-27T08:56:07.356Z,13.32
2022-09-27T08:57:07.345Z,13.39
2022-09-27T08:58:07.326Z,13.39
2022-09-27T08:59:07.527Z,13.30
2022-09-27T09:00:07.372Z,13.22
2022-09-27T09:01:07.335Z,13.19
2022-09-27T09:02:07.329Z,13.23
2022-09-27T09:03:07.262Z,13.22
2022-09-27T09:04:07.454Z,13.17
2022-09-27T09:05:07.254Z,13.17
2022-09-27T09:06:07.225Z,13.14
2022-09-27T09:07:07.204Z,13.20
2022-09-27T09:08:07.224Z,13.03
2022-09-27T09:09:07.273Z,13.01
2022-09-27T09:10:07.174Z,12.95
2022-09-27T09:11:07.165Z,12.85
2022-09-27T09:12:07.144Z,12.77
2022-09-27T09:13:07.130Z,12.52
2022-09-27T09:14:11.444Z,12.39
2022-09-27T09:15:08.323Z,12.29
2022-09-27T09:16:07.146Z,12.17
2022-09-27T09:17:07.096Z,12.12
2022-09-27T09:18:07.062Z,12.02
2022-09-27T09:19:07.253Z,11.99
2022-09-27T09:20:07.062Z,11.95
2022-09-27T09:21:07.044Z,12.05
2022-09-27T09:22:07.012Z,12.20
2022-09-27T09:23:07.001Z,12.49
2022-09-27T09:24:07.191Z,12.74
2022-09-27T09:25:06.970Z,13.00
2022-09-27T09:26:06.952Z,13.14
2022-09-27T09:27:06.950Z,13.14
2022-09-27T09:28:06.940Z,13.10
2022-09-27T09:29:06.972Z,13.05
2022-09-27T09:30:06.919Z,12.97
2022-09-27T09:31:13.926Z,12.90
2022-09-27T09:32:13.895Z,12.90
2022-09-27T09:33:06.865Z,12.95
2022-09-27T09:34:06.846Z,12.92
2022-09-27T09:35:07.222Z,12.90
2022-09-27T09:36:06.827Z,12.82
2022-09-27T09:37:06.817Z,12.71
2022-09-27T09:38:06.790Z,12.71
2022-09-27T09:39:07.147Z,12.70
2022-09-27T09:40:08.932Z,12.62
2022-09-27T09:41:06.767Z,12.67
2022-09-27T09:42:06.737Z,12.82
2022-09-27T09:43:06.745Z,12.78
2022-09-27T09:44:06.720Z,12.71
2022-09-27T09:45:07.076Z,12.74
2022-09-27T09:46:06.723Z,12.90
2022-09-27T09:47:06.672Z,13.05
2022-09-27T09:48:06.659Z,13.14
2022-09-27T09:49:07.077Z,13.07
2022-09-27T09:50:06.644Z,12.96
2022-09-27T09:51:06.624Z,12.79
2022-09-27T09:52:08.741Z,12.87
2022-09-27T09:53:06.595Z,13.01
2022-09-27T09:54:06.575Z,13.28
2022-09-27T09:55:06.880Z,13.44
2022-09-27T09:56:06.547Z,13.59
2022-09-27T09:57:06.523Z,13.69
2022-09-27T09:58:06.513Z,13.88
2022-09-27T09:59:06.894Z,13.89
2022-09-27T10:00:06.493Z,14.03
2022-09-27T10:01:06.530Z,14.28
2022-09-27T10:02:06.505Z,14.46
2022-09-27T10:03:06.462Z,14.47
2022-09-27T10:04:06.444Z,14.33
2022-09-27T10:05:07.830Z,14.37
2022-09-27T10:06:06.412Z,14.40
2022-09-27T10:07:06.411Z,14.52
2022-09-27T10:08:06.384Z,14.51
2022-09-27T10:09:06.742Z,14.52
2022-09-27T10:10:06.361Z,14.58
2022-09-27T10:11:06.371Z,14.68
2022-09-27T10:12:06.332Z,14.83
2022-09-27T10:13:06.355Z,14.98
2022-09-27T10:14:06.311Z,14.99
2022-09-27T10:15:06.644Z,14.98
2022-09-27T10:16:06.319Z,14.89
2022-09-27T10:17:06.279Z,14.86
2022-09-27T10:18:06.269Z,14.61
2022-09-27T10:19:06.311Z,14.47
2022-09-27T10:20:06.230Z,14.27
2022-09-27T10:21:06.228Z,14.09
2022-09-27T10:22:06.200Z,13.99
2022-09-27T10:23:06.228Z,13.89
2022-09-27T10:24:06.180Z,13.79
2022-09-27T10:25:06.548Z,13.71
2022-09-27T10:26:06.149Z,13.57
2022-09-27T10:27:06.150Z,13.29
2022-09-27T10:28:06.141Z,13.30
2022-09-27T10:29:06.552Z,13.41
2022-09-27T10:30:06.124Z,13.49
2022-09-27T10:31:06.115Z,13.57
2022-09-27T10:32:06.089Z,13.64
2022-09-27T10:33:06.060Z,13.62
2022-09-27T10:34:06.379Z,13.66
2022-09-27T10:35:06.043Z,13.85
2022-09-27T10:36:06.018Z,14.00
2022-09-27T10:37:06.023Z,14.15
2022-09-27T10:38:05.996Z,14.25
2022-09-27T10:39:06.355Z,14.29
2022-09-27T10:40:05.969Z,14.14
2022-09-27T10:41:05.968Z,14.03
2022-09-27T10:42:05.948Z,13.91
2022-09-27T10:43:05.929Z,13.96
2022-09-27T10:44:06.337Z,14.09
2022-09-27T10:45:05.907Z,14.14
2022-09-27T10:46:05.952Z,14.18
2022-09-27T10:47:05.880Z,14.28
2022-09-27T10:48:05.863Z,14.43
2022-09-27T10:49:06.231Z,14.40
2022-09-27T10:50:05.858Z,14.50
2022-09-27T10:51:05.836Z,14.40
2022-09-27T10:52:05.818Z,14.28
2022-09-27T10:53:05.810Z,14.04
2022-09-27T10:54:06.223Z,13.79
2022-09-27T10:55:05.798Z,13.81
2022-09-27T10:56:05.755Z,13.89
2022-09-27T10:57:05.747Z,13.97
2022-09-27T10:58:05.725Z,14.00
2022-09-27T10:59:06.065Z,14.24
2022-09-27T11:00:05.716Z,14.42
2022-09-27T11:01:05.766Z,14.43
2022-09-27T11:02:05.686Z,14.54
2022-09-27T11:03:05.684Z,14.55
2022-09-27T11:04:06.233Z,14.55
2022-09-27T11:05:05.688Z,14.70
2022-09-27T11:06:05.647Z,14.78
2022-09-27T11:07:05.645Z,14.89
2022-09-27T11:08:05.605Z,14.80
2022-09-27T11:09:05.644Z,14.94
2022-09-27T11:10:05.572Z,15.02
2022-09-27T11:11:05.573Z,15.01
2022-09-27T11:12:05.543Z,14.98
2022-09-27T11:13:05.541Z,15.01
2022-09-27T11:14:05.522Z,15.01
2022-09-27T11:15:05.872Z,14.89
2022-09-27T11:16:12.537Z,14.83
2022-09-27T11:17:13.490Z,14.80
2022-09-27T11:18:13.505Z,14.84
2022-09-27T11:19:15.461Z,14.89
2022-09-27T11:20:13.451Z,15.01
2022-09-27T11:21:12.427Z,15.16
2022-09-27T11:22:12.435Z,15.29
2022-09-27T11:23:05.403Z,15.36
2022-09-27T11:24:05.394Z,15.47
2022-09-27T11:25:05.706Z,15.43
2022-09-27T11:26:05.380Z,15.39
2022-09-27T11:27:05.359Z,15.36
2022-09-27T11:28:05.323Z,15.23
2022-09-27T11:29:05.632Z,15.23
2022-09-27T11:30:05.328Z,15.21
2022-09-27T11:31:05.324Z,15.20
2022-09-27T11:32:05.305Z,15.10
2022-09-27T11:33:05.280Z,15.17
2022-09-27T11:34:05.261Z,15.17
2022-09-27T11:35:05.713Z,15.25
2022-09-27T11:36:05.240Z,15.31
2022-09-27T11:37:05.232Z,15.21
2022-09-27T11:38:05.216Z,15.11
2022-09-27T11:39:05.294Z,14.96
2022-09-27T11:40:05.252Z,14.84
2022-09-27T11:41:05.187Z,14.80
2022-09-27T11:42:05.142Z,14.81
2022-09-27T11:43:05.143Z,14.72
2022-09-27T11:44:05.129Z,14.57
2022-09-27T11:45:32.069Z,14.50
2022-09-27T11:46:17.871Z,14.25
2022-09-27T11:47:06.196Z,14.15
2022-09-27T11:48:05.202Z,14.18
2022-09-27T11:49:05.491Z,14.17
2022-09-27T11:50:05.050Z,14.12
2022-09-27T11:51:05.042Z,14.06
2022-09-27T11:52:05.031Z,14.09
2022-09-27T11:53:05.020Z,14.12
2022-09-27T11:54:04.991Z,14.10
2022-09-27T11:55:05.420Z,14.22
2022-09-27T11:56:04.977Z,14.21
2022-09-27T11:57:04.950Z,14.27
2022-09-27T11:58:04.952Z,14.43
2022-09-27T11:59:05.320Z,14.72
2022-09-27T12:00:11.649Z,14.89
2022-09-27T12:01:05.021Z,15.09
2022-09-27T12:02:04.913Z,15.28
2022-09-27T12:03:04.907Z,15.43
2022-09-27T12:04:05.092Z,15.57
2022-09-27T12:05:04.850Z,15.71
2022-09-27T12:06:07.533Z,15.86
2022-09-27T12:07:04.845Z,15.84
2022-09-27T12:08:04.862Z,15.80
2022-09-27T12:09:05.132Z,15.74
2022-09-27T12:10:04.780Z,15.67
2022-09-27T12:11:04.789Z,15.41
2022-09-27T12:12:04.823Z,15.20
2022-09-27T12:13:04.750Z,14.98
2022-09-27T12:14:04.767Z,14.83
2022-09-27T12:15:07.211Z,14.60
2022-09-27T12:16:04.791Z,14.46
2022-09-27T12:17:04.697Z,14.40
2022-09-27T12:18:04.686Z,14.24
2022-09-27T12:19:05.008Z,14.17
2022-09-27T12:20:04.745Z,14.03
2022-09-27T12:21:04.720Z,13.95
2022-09-27T12:22:04.811Z,13.81
2022-09-27T12:23:04.747Z,13.64
2022-09-27T12:24:04.677Z,13.51
2022-09-27T12:25:05.179Z,13.38
2022-09-27T12:26:04.652Z,13.22
2022-09-27T12:27:04.644Z,13.10
2022-09-27T12:28:04.552Z,13.04
2022-09-27T12:29:04.936Z,12.97
2022-09-27T12:30:04.525Z,12.92
2022-09-27T12:31:27.394Z,12.86
2022-09-27T12:32:05.569Z,12.85
2022-09-27T12:33:04.487Z,12.78
2022-09-27T12:34:04.473Z,12.74
2022-09-27T12:35:04.886Z,12.68
2022-09-27T12:36:04.448Z,12.42
2022-09-27T12:37:04.433Z,12.28
2022-09-27T12:38:04.413Z,12.16
2022-09-27T12:39:04.776Z,12.01
2022-09-27T12:40:04.405Z,11.96
2022-09-27T12:41:04.380Z,11.94
2022-09-27T12:42:04.362Z,11.96
2022-09-27T12:43:04.356Z,11.95
2022-09-27T12:44:04.326Z,11.91
2022-09-27T12:45:04.692Z,11.94
2022-09-27T12:46:04.301Z,11.94
2022-09-27T12:47:04.291Z,11.91
2022-09-27T12:48:04.272Z,11.91
2022-09-27T12:49:04.623Z,11.96
2022-09-27T12:50:04.259Z,11.96
2022-09-27T12:51:04.250Z,12.07
2022-09-27T12:52:04.255Z,12.16